Time;durP1;ratioP1;P1;durP2;ratioP2;P2;SDS_P1;SDS_P2;PMS_P1;PMS_P2;Temp;Humidity;BMP_temperature;BMP_pressure;BME280_temperature;BME280_humidity;BME280_pressure;Samples;Min_cycle;Max_cycle;Signal;HPM_P1;HPM_P2
2021/04/14 00:00:33;;;;;;;;;;;;;;;-4.49;100.00;94775.94;5116979;28;19928;-78
2021/04/14 00:03:00;;;;;;;;;;;;;;;-4.35;100.00;94764.97;5117012;28;19947;-79
2021/04/14 00:05:27;;;;;;;;;;;;;;;-4.25;100.00;94770.38;5116979;28;20289;-79
2021/04/14 00:07:53;;;;;;;;;;;;;;;-4.25;100.00;94759.38;5116857;28;19928;-79
2021/04/14 00:10:20;;;;;;;;;;;;;;;-4.18;100.00;94765.75;5116561;28;19937;-78
2021/04/14 00:12:46;;;;;;;;;;;;;;;-4.20;100.00;94760.72;5116638;28;20002;-78
2021/04/14 00:15:15;;;;;;;;;;;;;;;-4.24;100.00;94763.56;5116898;28;19924;-77
2021/04/14 00:17:41;;;;;;;;;;;;;;;-4.13;100.00;94756.94;5116769;28;19930;-78
2021/04/14 00:20:10;;;;;;;;;;;;;;;-4.17;100.00;94759.75;5116716;28;19924;-78
2021/04/14 00:22:35;;;;;;;;;;;;;;;-4.19;100.00;94757.28;5116199;28;19934;-78
2021/04/14 00:25:01;;;;;;;;;;;;;;;-4.21;100.00;94754.00;5116461;28;20312;-77
2021/04/14 00:27:27;;;;;;;;;;;;;;;-4.02;100.00;94747.88;5116322;28;20024;-77
2021/04/14 00:29:55;;;;;;;;;;;;;;;-4.00;100.00;94748.59;5115745;28;20256;-77
2021/04/14 00:32:21;;;;;;;;;;;;;;;-4.15;100.00;94750.28;5115822;28;19924;-78
2021/04/14 00:34:47;;;;;;;;;;;;;;;-4.19;100.00;94751.38;5116232;28;19969;-78
2021/04/14 00:37:14;;;;;;;;;;;;;;;-4.14;100.00;94752.75;5116196;28;19924;-78
2021/04/14 00:39:40;;;;;;;;;;;;;;;-4.21;100.00;94751.47;5116023;28;19928;-78
2021/04/14 00:42:06;;;;;;;;;;;;;;;-4.22;100.00;94752.34;5116121;28;19927;-78
2021/04/14 00:44:32;;;;;;;;;;;;;;;-4.33;100.00;94754.69;5115917;28;20336;-78
2021/04/14 00:46:57;;;;;;;;;;;;;;;-4.47;100.00;94756.28;5116221;28;19924;-77
2021/04/14 00:49:23;;;;;;;;;;;;;;;-4.59;100.00;94751.88;5115749;28;20282;-77
2021/04/14 00:51:49;;;;;;;;;;;;;;;-4.79;100.00;94747.88;5115895;28;19924;-78
2021/04/14 00:54:16;;;;;;;;;;;;;;;-4.90;100.00;94747.63;5115711;28;19973;-78
2021/04/14 00:56:42;;;;;;;;;;;;;;;-4.94;100.00;94738.53;5116091;28;19932;-78
2021/04/14 00:59:08;;;;;;;;;;;;;;;-5.01;100.00;94753.31;5115706;28;20402;-77
2021/04/14 01:01:34;;;;;;;;;;;;;;;-5.00;100.00;94749.84;5115941;28;19977;-77
2021/04/14 01:04:00;;;;;;;;;;;;;;;-5.07;100.00;94744.25;5115788;28;20010;-76
2021/04/14 01:06:27;;;;;;;;;;;;;;;-5.06;100.00;94740.00;5115577;28;20018;-76
2021/04/14 01:08:54;;;;;;;;;;;;;;;-4.96;100.00;94737.75;5115434;28;19923;-79
2021/04/14 01:11:22;;;;;;;;;;;;;;;-4.66;100.00;94732.75;5115210;28;19928;-77
2021/04/14 01:13:48;;;;;;;;;;;;;;;-4.81;100.00;94728.47;5115461;28;19931;-78
2021/04/14 01:16:14;;;;;;;;;;;;;;;-4.86;100.00;94727.00;5115474;28;20374;-78
2021/04/14 01:18:40;;;;;;;;;;;;;;;-4.89;100.00;94727.16;5113010;28;19963;-77
2021/04/14 01:21:07;;;;;;;;;;;;;;;-4.97;100.00;94714.03;5115247;28;20520;-77
2021/04/14 01:23:33;;;;;;;;;;;;;;;-5.05;100.00;94732.25;5114995;28;19924;-78
2021/04/14 01:25:59;;;;;;;;;;;;;;;-4.96;100.00;94725.88;5115120;28;19928;-78
2021/04/14 01:28:28;;;;;;;;;;;;;;;-4.93;100.00;94728.25;5115366;28;19927;-80
2021/04/14 01:30:54;;;;;;;;;;;;;;;-4.94;100.00;94724.06;5114772;28;19924;-77
2021/04/14 01:33:20;;;;;;;;;;;;;;;-4.82;100.00;94722.56;5115262;28;19959;-75
2021/04/14 01:35:46;;;;;;;;;;;;;;;-4.68;100.00;94729.44;5114902;28;19928;-77
2021/04/14 01:38:12;;;;;;;;;;;;;;;-4.85;100.00;94728.63;5115227;28;19923;-78
2021/04/14 01:40:39;;;;;;;;;;;;;;;-5.10;100.00;94730.88;5115079;28;19931;-77
2021/04/14 01:43:05;;;;;;;;;;;;;;;-5.25;100.00;94727.41;5114868;28;19924;-77
2021/04/14 01:45:32;;;;;;;;;;;;;;;-5.19;100.00;94727.09;5114621;28;20373;-77
2021/04/14 01:47:58;;;;;;;;;;;;;;;-5.29;100.00;94725.94;5114790;28;19924;-77
2021/04/14 01:50:26;;;;;;;;;;;;;;;-5.31;100.00;94725.19;5114877;28;19931;-77
2021/04/14 01:52:52;;;;;;;;;;;;;;;-5.07;100.00;94717.97;5114713;28;19923;-77
2021/04/14 01:55:18;;;;;;;;;;;;;;;-4.99;100.00;94710.75;5114795;28;19924;-77
2021/04/14 01:57:46;;;;;;;;;;;;;;;-4.87;100.00;94716.91;5114857;28;19931;-77
2021/04/14 02:00:16;;;;;;;;;;;;;;;-4.84;100.00;94712.47;5114557;28;19931;-77
2021/04/14 02:02:42;;;;;;;;;;;;;;;-4.82;100.00;94706.47;5114600;28;19928;-77
2021/04/14 02:05:08;;;;;;;;;;;;;;;-4.93;100.00;94707.88;5114315;28;19950;-77
2021/04/14 02:07:34;;;;;;;;;;;;;;;-5.08;100.00;94701.91;5114294;28;20010;-77
2021/04/14 02:10:00;;;;;;;;;;;;;;;-5.19;100.00;94711.03;5114618;28;19931;-77
2021/04/14 02:12:26;;;;;;;;;;;;;;;-5.34;100.00;94700.75;5114589;28;19928;-77
2021/04/14 02:14:53;;;;;;;;;;;;;;;-5.33;100.00;94704.91;5114132;28;19953;-77
2021/04/14 02:17:18;;;;;;;;;;;;;;;-5.21;100.00;94701.72;5114391;28;19931;-77
2021/04/14 02:19:44;;;;;;;;;;;;;;;-5.37;100.00;94700.09;5114253;28;19924;-77
2021/04/14 02:22:10;;;;;;;;;;;;;;;-5.45;100.00;94705.56;5114118;28;19946;-77
2021/04/14 02:24:36;;;;;;;;;;;;;;;-5.48;100.00;94698.94;5113950;28;19957;-77
2021/04/14 02:27:02;;;;;;;;;;;;;;;-5.10;100.00;94692.69;5114160;28;20014;-76
2021/04/14 02:29:28;;;;;;;;;;;;;;;-5.00;100.00;94690.47;5114212;28;19924;-77
2021/04/14 02:31:54;;;;;;;;;;;;;;;-4.98;100.00;94692.00;5113973;28;20426;-76
2021/04/14 02:34:20;;;;;;;;;;;;;;;-4.97;100.00;94682.66;5113316;28;19931;-77
2021/04/14 02:36:46;;;;;;;;;;;;;;;-4.99;100.00;94687.84;5114191;28;20277;-76
2021/04/14 02:39:12;;;;;;;;;;;;;;;-5.03;100.00;94683.81;5114201;28;19924;-76
2021/04/14 02:41:38;;;;;;;;;;;;;;;-5.10;100.00;94682.50;5114017;28;19923;-77
2021/04/14 02:44:04;;;;;;;;;;;;;;;-5.08;100.00;94681.53;5113695;28;19924;-77
2021/04/14 02:46:30;;;;;;;;;;;;;;;-4.99;100.00;94680.22;5113644;28;19924;-77
2021/04/14 02:48:57;;;;;;;;;;;;;;;-5.09;100.00;94676.53;5113754;28;20018;-77
2021/04/14 02:51:24;;;;;;;;;;;;;;;-5.21;100.00;94671.19;5113882;28;19934;-76
2021/04/14 02:53:49;;;;;;;;;;;;;;;-5.44;100.00;94674.16;5113603;28;20018;-77
2021/04/14 02:56:15;;;;;;;;;;;;;;;-5.54;100.00;94667.91;5113552;28;19927;-77
2021/04/14 02:58:41;;;;;;;;;;;;;;;-5.33;100.00;94661.66;5113492;28;19928;-77
2021/04/14 03:01:07;;;;;;;;;;;;;;;-5.29;100.00;94659.78;5113701;28;19971;-77
2021/04/14 03:03:33;;;;;;;;;;;;;;;-5.25;100.00;94668.88;5113498;28;19934;-77
2021/04/14 03:06:00;;;;;;;;;;;;;;;-5.13;100.00;94668.25;5113827;28;20395;-76
2021/04/14 03:08:25;;;;;;;;;;;;;;;-5.14;100.00;94670.88;5113265;28;20379;-77
2021/04/14 03:10:51;;;;;;;;;;;;;;;-5.11;100.00;94671.53;5113566;28;19930;-76
2021/04/14 03:13:17;;;;;;;;;;;;;;;-5.09;100.00;94663.81;5113678;28;19945;-76
2021/04/14 03:15:44;;;;;;;;;;;;;;;-5.19;100.00;94663.47;5113593;28;19924;-76
2021/04/14 03:18:11;;;;;;;;;;;;;;;-5.40;100.00;94666.25;5113467;28;20310;-77
2021/04/14 03:20:36;;;;;;;;;;;;;;;-5.53;100.00;94659.38;5113310;28;20446;-77
2021/04/14 03:23:03;;;;;;;;;;;;;;;-5.49;100.00;94650.69;5113499;28;19923;-77
2021/04/14 03:25:31;;;;;;;;;;;;;;;-5.59;100.00;94658.78;5113607;28;20298;-76
2021/04/14 03:27:57;;;;;;;;;;;;;;;-5.61;100.00;94663.16;5113570;28;19986;-76
2021/04/14 03:30:23;;;;;;;;;;;;;;;-5.59;100.00;94658.78;5113451;28;19928;-78
2021/04/14 03:32:49;;;;;;;;;;;;;;;-5.46;100.00;94653.88;5113328;28;20401;-77
2021/04/14 03:35:15;;;;;;;;;;;;;;;-5.27;100.00;94652.88;5113898;28;19923;-77
2021/04/14 03:37:41;;;;;;;;;;;;;;;-5.23;100.00;94657.75;5113617;28;20363;-77
2021/04/14 03:40:09;;;;;;;;;;;;;;;-5.10;100.00;94654.50;5113363;28;19931;-77
2021/04/14 03:42:35;;;;;;;;;;;;;;;-4.92;100.00;94653.50;5113466;28;19954;-77
2021/04/14 03:45:02;;;;;;;;;;;;;;;-4.71;100.00;94648.13;5113030;28;19931;-78
2021/04/14 03:47:28;;;;;;;;;;;;;;;-4.71;100.00;94654.03;5113035;28;19973;-77
2021/04/14 03:49:54;;;;;;;;;;;;;;;-4.75;100.00;94644.09;5113314;28;19976;-76
2021/04/14 03:52:20;;;;;;;;;;;;;;;-4.87;100.00;94643.88;5113073;28;19931;-78
2021/04/14 03:54:46;;;;;;;;;;;;;;;-4.90;100.00;94651.69;5113240;28;19958;-75
2021/04/14 03:57:13;;;;;;;;;;;;;;;-4.80;100.00;94646.09;5113322;28;19924;-77
2021/04/14 03:59:41;;;;;;;;;;;;;;;-4.89;100.00;94639.78;5112859;28;20413;-77
2021/04/14 04:02:06;;;;;;;;;;;;;;;-4.96;100.00;94643.56;5112747;28;19927;-76
2021/04/14 04:04:32;;;;;;;;;;;;;;;-5.17;100.00;94641.31;5113762;28;20370;-77
2021/04/14 04:06:58;;;;;;;;;;;;;;;-5.00;100.00;94637.81;5117070;28;20286;-76
2021/04/14 04:09:24;;;;;;;;;;;;;;;-5.08;100.00;94650.16;5116809;28;20286;-77
2021/04/14 04:11:50;;;;;;;;;;;;;;;-5.14;100.00;94642.88;5116614;28;19948;-76
2021/04/14 04:14:17;;;;;;;;;;;;;;;-5.15;100.00;94647.13;5116982;28;19931;-77
2021/04/14 04:16:42;;;;;;;;;;;;;;;-5.10;100.00;94645.13;5116594;28;19927;-76
2021/04/14 04:19:08;;;;;;;;;;;;;;;-5.15;100.00;94647.13;5116487;28;19938;-76
2021/04/14 04:21:34;;;;;;;;;;;;;;;-5.18;100.00;94647.28;5116819;28;19923;-76
2021/04/14 04:24:00;;;;;;;;;;;;;;;-5.25;100.00;94646.00;5116809;28;19930;-75
2021/04/14 04:26:26;;;;;;;;;;;;;;;-5.22;100.00;94641.53;5116364;28;20407;-76
2021/04/14 04:28:51;;;;;;;;;;;;;;;-5.18;100.00;94643.94;5116199;28;20068;-76
2021/04/14 04:31:18;;;;;;;;;;;;;;;-5.05;100.00;94647.44;5116191;28;19923;-76
2021/04/14 04:33:44;;;;;;;;;;;;;;;-4.87;100.00;94640.50;5116424;28;19924;-76
2021/04/14 04:36:10;;;;;;;;;;;;;;;-4.84;100.00;94642.91;5116455;28;19942;-76
2021/04/14 04:38:36;;;;;;;;;;;;;;;-4.84;100.00;94648.00;5115698;28;19928;-76
2021/04/14 04:41:02;;;;;;;;;;;;;;;-4.69;100.00;94648.84;5116226;28;20302;-76
2021/04/14 04:43:28;;;;;;;;;;;;;;;-4.57;100.00;94649.88;5116144;28;20384;-77
2021/04/14 04:45:54;;;;;;;;;;;;;;;-4.67;100.00;94654.69;5115968;28;19924;-76
2021/04/14 04:48:21;;;;;;;;;;;;;;;-4.79;100.00;94658.72;5116187;28;19931;-75
2021/04/14 04:50:46;;;;;;;;;;;;;;;-4.77;100.00;94664.56;5116132;28;19931;-74
2021/04/14 04:53:14;;;;;;;;;;;;;;;-4.70;100.00;94657.38;5116030;28;20291;-76
2021/04/14 04:55:41;;;;;;;;;;;;;;;-4.62;100.00;94656.97;5115794;28;20409;-77
2021/04/14 04:58:07;;;;;;;;;;;;;;;-4.79;100.00;94658.72;5115906;28;19923;-74
2021/04/14 05:00:33;;;;;;;;;;;;;;;-4.63;100.00;94663.78;5115969;28;19958;-75
2021/04/14 05:02:59;;;;;;;;;;;;;;;-4.72;100.00;94664.31;5115746;28;19938;-76
2021/04/14 05:05:27;;;;;;;;;;;;;;;-4.82;100.00;94666.53;5115933;28;19923;-78
2021/04/14 05:07:53;;;;;;;;;;;;;;;-4.88;100.00;94670.25;5115793;28;19947;-75
2021/04/14 05:10:19;;;;;;;;;;;;;;;-4.94;100.00;94674.88;5115867;28;20382;-75
2021/04/14 05:12:48;;;;;;;;;;;;;;;-5.00;100.00;94673.47;5115582;28;19924;-76
2021/04/14 05:15:14;;;;;;;;;;;;;;;-5.05;100.00;94672.91;5115387;28;19927;-76
2021/04/14 05:17:40;;;;;;;;;;;;;;;-4.94;100.00;94678.22;5115277;28;20332;-76
2021/04/14 05:20:06;;;;;;;;;;;;;;;-4.89;100.00;94675.44;5115557;28;19942;-77
2021/04/14 05:22:33;;;;;;;;;;;;;;;-4.82;100.00;94675.91;5115389;28;19923;-77
2021/04/14 05:24:59;;;;;;;;;;;;;;;-4.86;100.00;94676.09;5115068;28;19924;-78
2021/04/14 05:27:25;;;;;;;;;;;;;;;-4.77;100.00;94679.03;5115272;28;19923;-76
2021/04/14 05:29:51;;;;;;;;;;;;;;;-4.87;100.00;94679.53;5115239;28;20378;-77
2021/04/14 05:32:18;;;;;;;;;;;;;;;-4.76;100.00;94676.41;5114906;28;19924;-77
2021/04/14 05:34:44;;;;;;;;;;;;;;;-4.77;100.00;94674.75;5115342;28;19924;-77
2021/04/14 05:37:10;;;;;;;;;;;;;;;-4.61;100.00;94678.97;5115052;28;20295;-76
2021/04/14 05:39:37;;;;;;;;;;;;;;;-4.56;100.00;94682.06;5114961;28;19927;-77
2021/04/14 05:42:03;;;;;;;;;;;;;;;-4.56;100.00;94682.06;5114761;28;19924;-76
2021/04/14 05:44:29;;;;;;;;;;;;;;;-4.54;100.00;94682.84;5114970;28;19927;-76
2021/04/14 05:46:54;;;;;;;;;;;;;;;-4.48;100.00;94679.91;5115120;28;19923;-76
2021/04/14 05:49:20;;;;;;;;;;;;;;;-4.36;100.00;94679.25;5114957;28;19928;-77
2021/04/14 05:51:46;;;;;;;;;;;;;;;-4.30;100.00;94680.59;5114774;28;20409;-76
2021/04/14 05:54:13;;;;;;;;;;;;;;;-4.20;100.00;94681.72;5114571;28;19970;-76
2021/04/14 05:56:39;;;;;;;;;;;;;;;-4.09;100.00;94681.09;5114598;28;19924;-77
2021/04/14 05:59:05;;;;;;;;;;;;;;;-4.00;100.00;94687.38;5114522;28;20293;-76
2021/04/14 06:01:32;;;;;;;;;;;;;;;-3.87;100.00;94680.66;5114445;28;19924;-77
2021/04/14 06:03:58;;;;;;;;;;;;;;;-3.70;100.00;94677.09;5114855;28;19924;-76
2021/04/14 06:06:25;;;;;;;;;;;;;;;-3.59;100.00;94679.03;5114592;28;20014;-76
2021/04/14 06:08:51;;;;;;;;;;;;;;;-3.51;100.00;94676.00;5114123;28;19969;-78
2021/04/14 06:11:16;;;;;;;;;;;;;;;-3.43;100.00;94677.19;5114410;28;19932;-77
2021/04/14 06:13:44;;;;;;;;;;;;;;;-3.26;100.00;94670.22;5114855;28;20324;-76
2021/04/14 06:16:10;;;;;;;;;;;;;;;-3.09;100.00;94672.53;5114364;28;20587;-77
2021/04/14 06:18:36;;;;;;;;;;;;;;;-2.94;100.00;94669.97;5114255;28;19927;-77
2021/04/14 06:21:03;;;;;;;;;;;;;;;-2.88;100.00;94675.50;5114235;28;20263;-76
2021/04/14 06:23:30;;;;;;;;;;;;;;;-2.84;100.00;94671.00;5114127;28;19923;-76
2021/04/14 06:26:01;;;;;;;;;;;;;;;-2.70;100.00;94672.69;5114119;28;20378;-76
2021/04/14 06:28:27;;;;;;;;;;;;;;;-2.55;100.00;94681.91;5113694;28;20010;-77
2021/04/14 06:30:55;;;;;;;;;;;;;;;-2.34;100.00;94679.72;5114109;28;19923;-77
2021/04/14 06:33:22;;;;;;;;;;;;;;;-2.17;100.00;94675.25;5114164;28;19968;-77
2021/04/14 06:35:48;;;;;;;;;;;;;;;-1.97;100.00;94672.19;5113664;28;19923;-74
2021/04/14 06:38:16;;;;;;;;;;;;;;;-1.68;100.00;94672.00;5113681;28;20011;-77
2021/04/14 06:41:05;;;;;;;;;;;;;;;-1.32;100.00;94672.94;5113734;28;20291;-75
2021/04/14 06:43:39;;;;;;;;;;;;;;;-1.04;100.00;94674.41;5114113;28;19930;-77
2021/04/14 06:46:08;;;;;;;;;;;;;;;-0.71;100.00;94672.97;5113522;28;19956;-78
2021/04/14 06:48:56;;;;;;;;;;;;;;;-0.46;100.00;94676.34;5111263;27;19926;-76
2021/04/14 06:51:26;;;;;;;;;;;;;;;-0.23;100.00;94677.22;5111338;28;20394;-79
2021/04/14 06:53:58;;;;;;;;;;;;;;;-0.03;100.00;94679.13;5110803;28;20264;-78
2021/04/14 06:56:25;;;;;;;;;;;;;;;0.28;100.00;94671.69;5111139;28;19975;-78
2021/04/14 06:58:53;;;;;;;;;;;;;;;0.41;100.00;94670.78;5110841;28;19924;-79
2021/04/14 07:01:21;;;;;;;;;;;;;;;0.60;100.00;94672.78;5110599;28;19924;-78
2021/04/14 07:03:50;;;;;;;;;;;;;;;0.76;100.00;94667.28;5111138;28;20053;-81
2021/04/14 07:06:19;;;;;;;;;;;;;;;0.90;100.00;94667.84;5110985;28;19954;-80
2021/04/14 07:08:49;;;;;;;;;;;;;;;1.04;94.65;94664.19;5110844;28;19924;-79
2021/04/14 07:11:18;;;;;;;;;;;;;;;1.24;94.19;94659.25;5110614;28;19924;-77
2021/04/14 07:13:45;;;;;;;;;;;;;;;1.44;93.30;94655.88;5110487;28;19930;-79
2021/04/14 07:16:19;;;;;;;;;;;;;;;1.48;97.23;94662.44;5110958;28;19928;-76
2021/04/14 07:18:48;;;;;;;;;;;;;;;1.58;93.24;94656.53;5101434;28;19978;-79
2021/04/14 07:21:17;;;;;;;;;;;;;;;1.66;99.85;94660.13;5110756;28;20382;-79
2021/04/14 07:23:46;;;;;;;;;;;;;;;1.79;94.92;94659.16;5110666;28;20375;-79
2021/04/14 07:26:17;;;;;;;;;;;;;;;1.95;90.19;94658.69;5110430;28;19928;-78
2021/04/14 07:28:52;;;;;;;;;;;;;;;2.06;88.10;94650.91;5110631;28;20056;-78
2021/04/14 07:31:21;;;;;;;;;;;;;;;2.08;87.14;94654.16;5109906;28;20389;-78
2021/04/14 07:34:02;;;;;;;;;;;;;;;2.18;84.92;94651.66;5110296;28;20527;-78
2021/04/14 07:36:34;;;;;;;;;;;;;;;2.16;83.30;94649.19;5110271;28;19924;-78
2021/04/14 07:39:04;;;;;;;;;;;;;;;2.25;85.18;94644.22;5110224;28;19924;-81
2021/04/14 07:41:37;;;;;;;;;;;;;;;2.55;85.38;94649.41;5110156;28;20374;-79
2021/04/14 07:44:05;;;;;;;;;;;;;;;2.66;82.92;94650.25;5110102;28;19938;-79
2021/04/14 07:46:32;;;;;;;;;;;;;;;2.75;82.43;94647.69;5109675;28;20313;-79
2021/04/14 07:49:00;;;;;;;;;;;;;;;2.88;80.98;94647.47;5110053;28;19924;-79
2021/04/14 07:51:28;;;;;;;;;;;;;;;2.86;78.36;94643.38;5110304;28;20393;-81
2021/04/14 07:53:56;;;;;;;;;;;;;;;2.77;77.37;94639.84;5110174;28;19931;-79
2021/04/14 07:56:23;;;;;;;;;;;;;;;2.74;78.98;94640.91;5109982;28;19924;-81
2021/04/14 07:58:52;;;;;;;;;;;;;;;2.98;77.41;94637.16;5104080;28;19932;-80
2021/04/14 08:01:18;;;;;;;;;;;;;;;3.26;78.51;94640.75;5096171;28;19924;-79
2021/04/14 08:03:45;;;;;;;;;;;;;;;3.41;72.80;94643.75;5096094;28;20375;-79
2021/04/14 08:06:12;;;;;;;;;;;;;;;3.62;76.08;94641.03;5096427;28;19925;-80
2021/04/14 08:08:39;;;;;;;;;;;;;;;3.86;67.82;94642.38;5096301;28;20271;-79
2021/04/14 08:11:07;;;;;;;;;;;;;;;3.98;67.42;94641.28;5096004;28;20495;-80
2021/04/14 08:13:38;;;;;;;;;;;;;;;3.79;70.39;94633.56;5096172;28;20019;-78
2021/04/14 08:16:16;;;;;;;;;;;;;;;3.64;73.74;94636.56;5095985;28;19947;-79
2021/04/14 08:18:48;;;;;;;;;;;;;;;3.53;75.66;94631.53;5095950;28;19924;-78
2021/04/14 08:21:16;;;;;;;;;;;;;;;3.17;78.66;94638.97;5096101;28;20287;-79
2021/04/14 08:23:52;;;;;;;;;;;;;;;3.00;80.83;94639.59;5095861;28;20479;-76
2021/04/14 08:26:19;;;;;;;;;;;;;;;2.89;83.33;94638.78;5095806;28;19927;-78
2021/04/14 08:28:47;;;;;;;;;;;;;;;2.90;82.19;94637.84;5095455;28;19931;-79
2021/04/14 08:31:17;;;;;;;;;;;;;;;3.03;78.47;94639.34;5095481;28;19932;-77
2021/04/14 08:33:44;;;;;;;;;;;;;;;3.05;80.20;94640.88;5095767;28;19931;-79
2021/04/14 08:36:12;;;;;;;;;;;;;;;3.02;79.95;94637.75;5095839;28;20541;-79
2021/04/14 08:38:38;;;;;;;;;;;;;;;2.83;80.33;94639.31;5095382;28;19985;-78
2021/04/14 08:41:05;;;;;;;;;;;;;;;2.84;80.92;94650.44;5095475;28;19925;-79
2021/04/14 08:43:32;;;;;;;;;;;;;;;3.15;84.54;94638.31;5095588;28;19928;-78
2021/04/14 08:46:09;;;;;;;;;;;;;;;3.44;79.22;94640.09;5095439;28;19931;-78
2021/04/14 08:48:35;;;;;;;;;;;;;;;3.52;75.23;94635.88;5093151;28;19924;-79
2021/04/14 08:51:03;;;;;;;;;;;;;;;3.14;78.92;94639.25;5084133;28;19924;-80
2021/04/14 08:53:32;;;;;;;;;;;;;;;2.93;78.17;94639.31;5083940;28;20425;-77
2021/04/14 08:55:58;;;;;;;;;;;;;;;2.70;78.94;94636.16;5082682;28;19924;-77
2021/04/14 08:58:24;;;;;;;;;;;;;;;2.87;81.95;94638.09;5078237;28;19924;-78
2021/04/14 09:00:50;;;;;;;;;;;;;;;2.97;82.79;94626.03;5075059;28;19929;-78
2021/04/14 09:03:18;;;;;;;;;;;;;;;3.11;77.13;94631.75;5075018;28;19925;-79
2021/04/14 09:05:45;;;;;;;;;;;;;;;3.22;76.71;94634.22;5074872;28;19924;-76
2021/04/14 09:08:13;;;;;;;;;;;;;;;3.65;77.09;94624.47;5074590;28;19932;-81
2021/04/14 09:10:41;;;;;;;;;;;;;;;4.40;75.55;94627.19;5073961;28;19946;-77
2021/04/14 09:13:08;;;;;;;;;;;;;;;4.33;72.97;94618.34;5074884;28;19924;-78
2021/04/14 09:15:46;;;;;;;;;;;;;;;3.95;75.10;94620.91;5074798;28;19931;-77
2021/04/14 09:18:12;;;;;;;;;;;;;;;3.91;72.55;94619.53;5074646;28;19924;-76
2021/04/14 09:20:40;;;;;;;;;;;;;;;4.00;72.01;94620.50;5074418;28;19924;-76
2021/04/14 09:23:07;;;;;;;;;;;;;;;3.92;71.01;94610.84;5074473;28;20382;-80
2021/04/14 09:25:40;;;;;;;;;;;;;;;4.20;73.59;94613.50;5074246;28;19936;-77
2021/04/14 09:28:07;;;;;;;;;;;;;;;4.15;70.53;94616.50;5074334;28;19931;-79
2021/04/14 09:30:35;;;;;;;;;;;;;;;4.15;69.76;94613.13;5074362;28;20293;-79
2021/04/14 09:33:13;;;;;;;;;;;;;;;4.50;68.68;94616.81;5074323;28;19925;-79
2021/04/14 09:35:55;;;;;;;;;;;;;;;5.04;66.35;94615.16;5074206;28;19924;-79
2021/04/14 09:38:28;;;;;;;;;;;;;;;5.47;64.32;94613.66;5074378;28;19970;-80
2021/04/14 09:41:06;;;;;;;;;;;;;;;5.42;60.84;94602.91;5074200;28;20074;-77
2021/04/14 09:43:33;;;;;;;;;;;;;;;5.46;63.14;94617.22;5074070;28;19930;-79
2021/04/14 09:46:00;;;;;;;;;;;;;;;5.84;64.03;94607.47;5074003;28;20449;-79
2021/04/14 09:48:37;;;;;;;;;;;;;;;5.85;61.17;94608.31;5073770;28;19932;-80
2021/04/14 09:51:14;;;;;;;;;;;;;;;5.74;60.92;94610.16;5074161;28;20275;-81
2021/04/14 09:53:41;;;;;;;;;;;;;;;5.84;61.38;94607.47;5073953;28;19928;-79
2021/04/14 09:56:08;;;;;;;;;;;;;;;5.65;59.57;94610.25;5073736;28;19924;-79
2021/04/14 09:58:37;;;;;;;;;;;;;;;5.40;59.60;94606.63;5074081;28;20023;-79
2021/04/14 10:01:12;;;;;;;;;;;;;;;4.88;59.37;94609.81;5073072;28;19925;-78
2021/04/14 10:03:43;;;;;;;;;;;;;;;4.53;61.60;94604.41;5073675;28;20390;-78
2021/04/14 10:06:13;;;;;;;;;;;;;;;4.58;62.46;94597.03;5073844;28;19924;-79
2021/04/14 10:08:40;;;;;;;;;;;;;;;5.12;60.11;94597.13;5073480;28;19924;-79
2021/04/14 10:11:05;;;;;;;;;;;;;;;5.81;62.85;94600.03;5073727;28;19993;-78
2021/04/14 10:13:32;;;;;;;;;;;;;;;6.51;58.43;94596.56;5073786;28;20366;-78
2021/04/14 10:15:59;;;;;;;;;;;;;;;7.24;55.08;94590.00;5073507;28;20323;-79
2021/04/14 10:18:26;;;;;;;;;;;;;;;7.19;51.94;94584.47;5073554;28;19924;-79
2021/04/14 10:20:53;;;;;;;;;;;;;;;7.22;56.47;94576.38;5073417;28;20375;-78
2021/04/14 10:23:21;;;;;;;;;;;;;;;7.52;53.37;94581.91;5073096;28;19932;-79
2021/04/14 10:25:48;;;;;;;;;;;;;;;7.24;51.76;94600.38;5073427;28;19950;-76
2021/04/14 10:28:23;;;;;;;;;;;;;;;6.61;50.84;94586.91;5073539;28;19932;-78
2021/04/14 10:30:51;;;;;;;;;;;;;;;6.35;50.48;94586.13;5073631;28;19931;-77
2021/04/14 10:33:18;;;;;;;;;;;;;;;6.40;55.25;94582.09;5074059;28;19925;-78
2021/04/14 10:35:44;;;;;;;;;;;;;;;6.40;53.63;94587.28;5093519;28;19939;-78
2021/04/14 10:38:10;;;;;;;;;;;;;;;6.29;53.33;94583.19;5093761;28;19947;-78
2021/04/14 10:40:39;;;;;;;;;;;;;;;6.20;51.88;94584.09;5093845;28;19981;-78
2021/04/14 10:43:12;;;;;;;;;;;;;;;6.39;51.91;94574.47;5093462;28;19938;-77
2021/04/14 10:45:51;;;;;;;;;;;;;;;5.97;51.21;94578.59;5093427;28;19924;-77
2021/04/14 10:48:17;;;;;;;;;;;;;;;6.09;52.11;94572.19;5093155;28;19924;-77
2021/04/14 10:50:43;;;;;;;;;;;;;;;6.71;51.03;94566.03;5093593;28;20347;-77
2021/04/14 10:53:10;;;;;;;;;;;;;;;7.33;50.87;94567.47;5093356;28;19924;-75
2021/04/14 10:55:38;;;;;;;;;;;;;;;7.92;52.55;94559.50;5093246;28;19931;-78
2021/04/14 10:58:06;;;;;;;;;;;;;;;7.84;48.19;94560.31;5093325;28;19924;-78
2021/04/14 11:00:33;;;;;;;;;;;;;;;8.28;50.72;94551.31;5093169;28;20437;-77
2021/04/14 11:03:01;;;;;;;;;;;;;;;8.07;47.49;94554.44;5093192;28;19924;-78
2021/04/14 11:05:28;;;;;;;;;;;;;;;8.20;46.15;94552.13;5093223;28;19977;-78
2021/04/14 11:07:55;;;;;;;;;;;;;;;8.20;46.38;94546.13;5093421;28;20018;-78
2021/04/14 11:10:23;;;;;;;;;;;;;;;8.06;45.31;94545.84;5093436;28;20019;-78
2021/04/14 11:12:50;;;;;;;;;;;;;;;7.75;44.00;94551.72;5093335;28;19930;-78
2021/04/14 11:15:19;;;;;;;;;;;;;;;7.75;46.36;94543.91;5092971;28;19924;-77
2021/04/14 11:17:52;;;;;;;;;;;;;;;7.34;42.90;94548.28;5093377;28;20278;-78
2021/04/14 11:20:22;;;;;;;;;;;;;;;6.74;45.74;94544.94;5093309;28;19978;-77
2021/04/14 11:22:49;;;;;;;;;;;;;;;6.41;46.52;94538.81;5093073;28;19924;-76
2021/04/14 11:25:23;;;;;;;;;;;;;;;6.18;50.28;94544.56;5093088;28;19930;-76
2021/04/14 11:27:57;;;;;;;;;;;;;;;6.19;48.91;94546.16;5092890;28;20026;-78
2021/04/14 11:30:24;;;;;;;;;;;;;;;6.00;49.13;94544.59;5093317;28;19932;-75
2021/04/14 11:32:52;;;;;;;;;;;;;;;6.55;48.80;94540.03;5093071;28;19928;-78
2021/04/14 11:35:29;;;;;;;;;;;;;;;6.92;47.94;94544.81;5096342;28;19977;-75
2021/04/14 11:37:54;;;;;;;;;;;;;;;6.83;46.73;94543.19;5096854;28;19924;-78
2021/04/14 11:40:32;;;;;;;;;;;;;;;7.56;46.18;94539.88;5096624;28;20286;-77
2021/04/14 11:42:59;;;;;;;;;;;;;;;7.93;46.41;94530.72;5096971;28;19971;-80
2021/04/14 11:45:27;;;;;;;;;;;;;;;7.87;45.61;94536.59;5096776;28;19924;-78
2021/04/14 11:47:53;;;;;;;;;;;;;;;7.14;47.78;94545.19;5096426;28;19924;-78
2021/04/14 11:50:20;;;;;;;;;;;;;;;6.50;48.12;94542.28;5096613;28;19924;-76
2021/04/14 11:52:49;;;;;;;;;;;;;;;6.38;51.21;94539.13;5096414;28;19928;-78
2021/04/14 11:55:23;;;;;;;;;;;;;;;6.53;49.40;94545.34;5096356;28;20272;-78
2021/04/14 11:57:54;;;;;;;;;;;;;;;6.23;48.80;94550.09;5096478;28;19947;-75
2021/04/14 12:00:25;;;;;;;;;;;;;;;6.29;47.80;94541.69;5096400;28;19982;-76
2021/04/14 12:02:54;;;;;;;;;;;;;;;6.30;48.28;94543.31;5096289;28;19924;-76
2021/04/14 12:05:20;;;;;;;;;;;;;;;6.13;49.13;94544.19;5096244;28;19928;-76
2021/04/14 12:07:46;;;;;;;;;;;;;;;6.34;45.14;94543.00;5096398;28;19924;-76
2021/04/14 12:10:12;;;;;;;;;;;;;;;7.02;48.33;94542.09;5092045;28;19924;-79
2021/04/14 12:12:38;;;;;;;;;;;;;;;7.35;45.71;94542.94;5075769;28;19924;-80
2021/04/14 12:15:04;;;;;;;;;;;;;;;6.96;45.78;94547.91;5095083;28;19924;-81
2021/04/14 12:17:30;;;;;;;;;;;;;;;7.00;45.44;94544.84;5096111;28;19928;-83
2021/04/14 12:19:57;;;;;;;;;;;;;;;6.77;47.23;94544.63;5096067;28;19924;-80
2021/04/14 12:22:24;;;;;;;;;;;;;;;6.29;46.95;94533.91;5095456;28;19963;-78
2021/04/14 12:24:50;;;;;;;;;;;;;;;6.17;47.98;94549.88;5095720;28;19925;-77
2021/04/14 12:27:15;;;;;;;;;;;;;;;6.21;47.97;94539.06;5095028;28;19978;-78
2021/04/14 12:29:41;;;;;;;;;;;;;;;6.09;49.13;94540.28;5095863;28;19971;-77
2021/04/14 12:32:07;;;;;;;;;;;;;;;6.50;48.23;94547.47;5095710;28;19969;-78
2021/04/14 12:34:33;;;;;;;;;;;;;;;6.37;48.19;94540.91;5095585;28;19931;-78
2021/04/14 12:37:00;;;;;;;;;;;;;;;6.66;50.03;94543.13;5095550;28;19924;-79
2021/04/14 12:39:26;;;;;;;;;;;;;;;6.81;48.13;94542.50;5095456;28;19924;-78
2021/04/14 12:41:52;;;;;;;;;;;;;;;6.63;48.15;94540.84;5095531;28;19924;-77
2021/04/14 12:44:19;;;;;;;;;;;;;;;5.74;50.92;94547.16;5095266;28;19924;-76
2021/04/14 12:46:47;;;;;;;;;;;;;;;5.28;52.60;94546.47;5095176;28;20332;-75